Aviation Digital Data Service (ADDS)

Output produced by METARs form (0210 UTC 05 June 2020)
found at http://www.aviationweather.gov/metar/data/
 
Forecast for: YPPH (PERTH INTL/BELMO, AU)
Text: TAF YPPH 042306Z 0500/0606 08010KT 9999 FU NSC
Forecast period: 0000 UTC 05 June 2020 to 0300 UTC 06 June 2020
Forecast type: FROM: standard forecast or significant change
Winds: from the E (80 degrees) at 12 MPH (10 knots; 5.1 m/s)
Visibility: 6 or more miles 10+ km)
Ceiling: unknown
Clouds: missing
Weather: FU  (smoke)
Text: FM060300 03010KT CAVOK
Forecast period: 0300 to 0600 UTC 06 June 2020
Forecast type: FROM: standard forecast or significant change
Winds: from the NNE (30 degrees) at 12 MPH (10 knots; 5.1 m/s)
Visibility: 6 or more miles 10+ km)
Ceiling: unknown
Clouds: missing
Weather: NSW  (no significant weather)